Time;durP1;ratioP1;P1;durP2;ratioP2;P2;SDS_P1;SDS_P2;PMS_P1;PMS_P2;Temp;Humidity;BMP_temperature;BMP_pressure;BME280_temperature;BME280_humidity;BME280_pressure;Samples;Min_cycle;Max_cycle;Signal;HPM_P1;HPM_P2
2020/12/19 20:05:35;;;;;;;14.25;6.18;;;19.70;45.30;;;;;;10509973;27;20645;-68
2020/12/19 20:10:40;;;;;;;11.32;6.72;;;12.20;65.70;;;;;;10447252;28;20053;-71
2020/12/19 20:15:41;;;;;;;15.75;7.32;;;9.80;76.50;;;;;;10436289;28;20076;-71
2020/12/19 20:20:44;;;;;;;14.95;6.55;;;9.00;81.60;;;;;;10437065;28;20190;-71
2020/12/19 20:25:45;;;;;;;19.53;8.43;;;8.60;83.90;;;;;;10436680;28;20195;-70
2020/12/19 20:30:46;;;;;;;10.68;7.88;;;8.50;86.40;;;;;;10437942;28;20603;-70
2020/12/19 20:35:48;;;;;;;20.77;8.90;;;8.40;87.00;;;;;;10437184;28;20499;-71
2020/12/19 20:40:50;;;;;;;20.13;7.60;;;8.40;88.00;;;;;;10436547;28;20063;-70
2020/12/19 20:45:51;;;;;;;20.20;9.38;;;8.30;88.10;;;;;;10436088;28;20143;-71
2020/12/19 20:50:53;;;;;;;19.60;8.68;;;8.40;89.50;;;;;;10435678;28;20174;-71
2020/12/19 20:55:55;;;;;;;17.23;8.50;;;8.30;89.30;;;;;;10436052;28;20056;-71
2020/12/19 21:00:57;;;;;;;21.17;11.48;;;8.30;90.00;;;;;;10435941;28;20056;-71
2020/12/19 21:05:59;;;;;;;19.60;9.50;;;8.40;90.40;;;;;;10437663;28;20473;-70
2020/12/19 21:11:00;;;;;;;21.85;10.65;;;8.30;90.30;;;;;;10435903;28;20071;-71
2020/12/19 21:16:04;;;;;;;21.48;10.35;;;8.40;90.60;;;;;;10411558;28;20072;-69
2020/12/19 21:21:06;;;;;;;16.42;8.73;;;8.30;90.50;;;;;;10408275;28;20128;-70
2020/12/19 21:26:08;;;;;;;19.93;8.80;;;8.30;90.70;;;;;;10406525;28;20049;-70
2020/12/19 21:31:09;;;;;;;16.23;6.38;;;8.40;90.90;;;;;;10405728;28;20401;-70
2020/12/19 21:36:12;;;;;;;21.48;11.65;;;8.40;90.90;;;;;;10407699;28;20607;-70
2020/12/19 21:41:13;;;;;;;21.13;10.98;;;8.40;91.00;;;;;;10339087;28;126893;-70
2020/12/19 21:46:14;;;;;;;25.88;8.48;;;8.30;90.90;;;;;;10449797;28;20151;-70
2020/12/19 21:51:16;;;;;;;24.90;10.10;;;8.40;91.20;;;;;;10445270;28;20450;-71
2020/12/19 21:56:17;;;;;;;25.40;10.80;;;8.40;91.20;;;;;;10441234;28;20477;-70
2020/12/19 22:01:20;;;;;;;22.90;10.40;;;8.40;91.40;;;;;;10437554;28;20067;-70
2020/12/19 22:06:22;;;;;;;18.60;8.35;;;8.40;91.20;;;;;;10438995;28;20059;-70
2020/12/19 22:11:25;;;;;;;29.60;10.83;;;8.40;91.30;;;;;;10435245;28;20099;-71
2020/12/19 22:16:27;;;;;;;19.73;8.90;;;8.50;91.40;;;;;;10437676;28;20045;-70
2020/12/19 22:21:29;;;;;;;26.42;9.85;;;8.50;91.30;;;;;;10434523;28;20462;-71
2020/12/19 22:26:30;;;;;;;22.88;10.35;;;8.50;91.40;;;;;;10440233;28;20041;-70
2020/12/19 22:31:31;;;;;;;25.80;9.35;;;8.50;91.40;;;;;;10446223;28;20040;-71
2020/12/19 22:36:33;;;;;;;20.23;9.13;;;8.50;91.30;;;;;;10448241;28;20175;-70
2020/12/19 22:41:35;;;;;;;38.13;10.48;;;8.50;91.60;;;;;;10447106;28;20143;-70
2020/12/19 22:46:36;;;;;;;20.27;8.30;;;8.50;91.50;;;;;;10429519;28;20091;-69
2020/12/19 22:51:38;;;;;;;13.13;6.07;;;8.50;91.40;;;;;;10445312;28;20055;-71
2020/12/19 22:56:45;;;;;;;25.90;7.97;;;8.50;91.40;;;;;;10446492;28;20041;-70
2020/12/19 23:01:46;;;;;;;19.80;7.95;;;8.50;91.40;;;;;;10445037;28;20053;-70
2020/12/19 23:06:48;;;;;;;21.23;7.82;;;8.50;91.40;;;;;;10445294;28;20472;-71
2020/12/19 23:11:55;;;;;;;22.03;6.90;;;8.60;91.40;;;;;;10444375;28;20071;-70
2020/12/19 23:16:56;;;;;;;22.23;7.72;;;8.50;91.30;;;;;;10445821;28;20056;-70
2020/12/19 23:21:58;;;;;;;20.00;7.50;;;8.50;91.30;;;;;;10446348;28;20059;-70
2020/12/19 23:27:01;;;;;;;20.23;8.63;;;8.40;91.20;;;;;;10448440;28;20442;-70
2020/12/19 23:32:03;;;;;;;20.25;6.65;;;8.40;91.30;;;;;;10446423;28;20080;-70
2020/12/19 23:37:05;;;;;;;17.42;7.88;;;8.40;91.30;;;;;;10444779;28;20512;-70
2020/12/19 23:42:06;;;;;;;23.27;7.18;;;8.40;91.40;;;;;;10446601;28;20102;-70
2020/12/19 23:47:07;;;;;;;17.70;6.28;;;8.50;91.40;;;;;;10448105;28;20137;-70
2020/12/19 23:52:09;;;;;;;21.60;6.95;;;8.50;91.40;;;;;;10445484;28;20060;-71
2020/12/19 23:57:11;;;;;;;26.07;8.70;;;8.50;91.30;;;;;;10444971;28;20131;-71
